createdAt,value
2019-05-23T00:00:50.635Z,7.59
2019-05-23T00:02:50.540Z,7.55
2019-05-23T00:04:50.044Z,7.53
2019-05-23T00:06:50.219Z,7.48
2019-05-23T00:08:50.160Z,7.43
2019-05-23T00:10:50.150Z,7.37
2019-05-23T00:12:50.134Z,7.33
2019-05-23T00:14:50.085Z,7.34
2019-05-23T00:16:50.652Z,7.30
2019-05-23T00:18:50.542Z,7.27
2019-05-23T00:20:50.611Z,7.24
2019-05-23T00:22:50.531Z,7.17
2019-05-23T00:24:50.539Z,7.11
2019-05-23T00:26:49.763Z,7.04
2019-05-23T00:28:49.807Z,7.01
2019-05-23T00:30:49.725Z,7.01
2019-05-23T00:32:49.825Z,7.01
2019-05-23T00:34:50.289Z,6.99
2019-05-23T00:36:50.414Z,6.94
2019-05-23T00:38:50.494Z,6.90
2019-05-23T00:40:50.493Z,6.84
2019-05-23T00:42:50.416Z,6.81
2019-05-23T00:44:50.420Z,6.78
2019-05-23T00:46:50.459Z,6.73
2019-05-23T00:48:50.661Z,6.70
2019-05-23T00:50:50.636Z,6.70
2019-05-23T00:52:49.704Z,6.69
2019-05-23T00:54:49.756Z,6.64
2019-05-23T00:56:49.869Z,6.59
2019-05-23T00:58:49.829Z,6.52
2019-05-23T01:00:49.843Z,6.49
2019-05-23T01:02:49.881Z,6.41
2019-05-23T01:04:50.310Z,6.37
2019-05-23T01:06:50.544Z,6.37
2019-05-23T01:08:50.605Z,6.31
2019-05-23T01:10:50.596Z,6.28
2019-05-23T01:12:50.701Z,6.25
2019-05-23T01:14:50.818Z,6.21
2019-05-23T01:16:49.935Z,6.19
2019-05-23T01:18:49.998Z,6.22
2019-05-23T01:20:50.011Z,6.21
2019-05-23T01:22:49.962Z,6.19
2019-05-23T01:24:50.087Z,6.19
2019-05-23T01:26:50.352Z,6.18
2019-05-23T01:28:50.380Z,6.19
2019-05-23T01:30:50.438Z,6.13
2019-05-23T01:32:50.498Z,6.10
2019-05-23T01:34:49.888Z,6.08
2019-05-23T01:36:49.994Z,6.04
2019-05-23T01:38:49.999Z,6.03
2019-05-23T01:40:49.986Z,6.02
2019-05-23T01:42:49.925Z,6.02
2019-05-23T01:44:49.890Z,6.03
2019-05-23T01:46:50.197Z,6.06
2019-05-23T01:48:50.258Z,6.09
2019-05-23T01:50:50.607Z,6.13
2019-05-23T01:52:49.995Z,6.13
2019-05-23T01:54:50.059Z,6.17
2019-05-23T01:56:50.266Z,6.17
2019-05-23T01:58:50.370Z,6.27
2019-05-23T02:00:50.318Z,6.27
2019-05-23T02:02:50.296Z,6.28
2019-05-23T02:04:50.579Z,6.30
2019-05-23T02:06:49.838Z,6.30
2019-05-23T02:08:50.306Z,6.32
2019-05-23T02:10:50.316Z,6.36
2019-05-23T02:12:50.326Z,6.35
2019-05-23T02:14:50.315Z,6.34
2019-05-23T02:16:50.429Z,6.29
2019-05-23T02:18:50.482Z,6.27
2019-05-23T02:20:50.592Z,6.27
2019-05-23T02:22:50.634Z,6.25
2019-05-23T02:24:50.626Z,6.26
2019-05-23T02:26:49.903Z,6.26
2019-05-23T02:28:49.903Z,6.28
2019-05-23T02:30:49.841Z,6.29
2019-05-23T02:32:49.802Z,6.29
2019-05-23T02:34:50.241Z,6.29
2019-05-23T02:36:50.375Z,6.28
2019-05-23T02:38:50.404Z,6.28
2019-05-23T02:40:50.390Z,6.29
2019-05-23T02:42:50.431Z,6.29
2019-05-23T02:44:50.484Z,6.29
2019-05-23T02:46:50.698Z,6.31
2019-05-23T02:48:49.700Z,6.31
2019-05-23T02:50:49.708Z,6.35
2019-05-23T02:52:49.799Z,6.36
2019-05-23T02:54:49.898Z,6.39
2019-05-23T02:56:50.143Z,6.40
2019-05-23T02:58:50.298Z,6.43
2019-05-23T03:00:56.014Z,6.45
2019-05-23T03:02:50.074Z,6.51
2019-05-23T03:04:50.449Z,6.55
2019-05-23T03:06:50.537Z,6.56
2019-05-23T03:08:50.622Z,6.59
2019-05-23T03:10:50.727Z,6.59
2019-05-23T03:12:50.680Z,6.60
2019-05-23T03:14:49.754Z,6.61
2019-05-23T03:16:50.084Z,6.62
2019-05-23T03:18:50.199Z,6.63
2019-05-23T03:20:50.200Z,6.62
2019-05-23T03:22:50.295Z,6.62
2019-05-23T03:24:50.266Z,6.63
2019-05-23T03:26:50.377Z,6.65
2019-05-23T03:28:49.957Z,6.65
2019-05-23T03:30:50.011Z,6.61
2019-05-23T03:32:50.081Z,6.63
2019-05-23T03:34:50.387Z,6.66
2019-05-23T03:36:50.625Z,6.67
2019-05-23T03:38:50.654Z,6.71
2019-05-23T03:40:50.783Z,6.69
2019-05-23T03:42:49.837Z,6.66
2019-05-23T03:44:49.886Z,6.62
2019-05-23T03:46:50.047Z,6.65
2019-05-23T03:48:50.082Z,6.71
2019-05-23T03:50:50.156Z,6.75
2019-05-23T03:52:50.145Z,6.81
2019-05-23T03:54:50.139Z,6.86
2019-05-23T03:56:50.241Z,6.88
2019-05-23T03:58:50.296Z,6.87
2019-05-23T04:00:50.350Z,6.85
2019-05-23T04:02:50.390Z,6.86
2019-05-23T04:04:49.797Z,6.85
2019-05-23T04:06:50.045Z,6.78
2019-05-23T04:08:50.007Z,6.77
2019-05-23T04:10:52.895Z,6.79
2019-05-23T04:12:49.956Z,6.78
2019-05-23T04:14:49.976Z,6.84
2019-05-23T04:16:50.110Z,6.89
2019-05-23T04:18:50.051Z,6.94
2019-05-23T04:20:50.053Z,6.98
2019-05-23T04:22:50.050Z,6.99
2019-05-23T04:24:50.010Z,7.02
2019-05-23T04:26:50.329Z,7.04
2019-05-23T04:28:50.404Z,7.04
2019-05-23T04:30:50.344Z,7.19
2019-05-23T04:32:50.335Z,7.19
2019-05-23T04:34:50.651Z,7.15
2019-05-23T04:36:49.923Z,7.16
2019-05-23T04:38:49.936Z,7.24
2019-05-23T04:40:50.084Z,7.29
2019-05-23T04:42:50.161Z,7.30
2019-05-23T04:44:50.210Z,7.36
2019-05-23T04:46:50.400Z,7.47
2019-05-23T04:48:50.489Z,7.47
2019-05-23T04:50:50.547Z,7.36
2019-05-23T04:52:50.557Z,7.30
2019-05-23T04:54:50.617Z,7.22
2019-05-23T04:56:49.855Z,7.34
2019-05-23T04:58:49.794Z,7.42
2019-05-23T05:00:49.773Z,7.51
2019-05-23T05:02:49.776Z,7.53
2019-05-23T05:04:50.273Z,7.66
2019-05-23T05:06:50.479Z,7.74
2019-05-23T05:08:50.498Z,7.85
2019-05-23T05:10:50.479Z,8.09
2019-05-23T05:12:50.554Z,8.11
2019-05-23T05:14:50.495Z,8.18
2019-05-23T05:16:50.649Z,8.35
2019-05-23T05:18:49.721Z,8.46
2019-05-23T05:20:50.670Z,8.49
2019-05-23T05:22:49.782Z,8.51
2019-05-23T05:24:49.809Z,8.55
2019-05-23T05:26:50.003Z,8.59
2019-05-23T05:28:50.103Z,8.55
2019-05-23T05:30:50.126Z,8.53
2019-05-23T05:32:50.102Z,8.52
2019-05-23T05:34:50.463Z,8.51
2019-05-23T05:36:50.327Z,8.56
2019-05-23T05:38:50.382Z,8.64
2019-05-23T05:40:50.520Z,8.71
2019-05-23T05:42:50.437Z,8.71
2019-05-23T05:44:50.395Z,8.88
2019-05-23T05:46:50.575Z,8.94
2019-05-23T05:48:50.607Z,9.02
2019-05-23T05:50:50.584Z,9.19
2019-05-23T05:52:50.626Z,9.28
2019-05-23T05:54:50.653Z,9.27
2019-05-23T05:56:49.700Z,9.28
2019-05-23T05:58:49.833Z,9.37
2019-05-23T06:00:49.862Z,9.46
2019-05-23T06:03:06.121Z,9.52
2019-05-23T06:04:49.924Z,9.62
2019-05-23T06:06:50.583Z,9.64
2019-05-23T06:08:50.652Z,9.69
2019-05-23T06:10:50.743Z,9.71
2019-05-23T06:12:49.795Z,9.71
2019-05-23T06:14:49.873Z,9.80
2019-05-23T06:16:50.104Z,9.81
2019-05-23T06:18:50.021Z,9.86
2019-05-23T06:20:50.086Z,10.04
2019-05-23T06:22:50.124Z,10.18
2019-05-23T06:24:58.386Z,10.29
2019-05-23T06:26:50.537Z,10.48
2019-05-23T06:28:50.413Z,10.60
2019-05-23T06:30:50.415Z,10.61
2019-05-23T06:32:50.507Z,10.55
2019-05-23T06:34:49.953Z,10.50
2019-05-23T06:36:50.091Z,10.50
2019-05-23T06:38:50.107Z,10.44
2019-05-23T06:40:50.015Z,10.34
2019-05-23T06:42:51.586Z,10.33
2019-05-23T06:44:50.524Z,10.41
2019-05-23T06:46:50.653Z,10.50
2019-05-23T06:48:49.744Z,10.53
2019-05-23T06:50:50.651Z,10.69
2019-05-23T06:52:50.671Z,10.59
2019-05-23T06:54:49.736Z,10.54
2019-05-23T06:56:49.951Z,10.48
2019-05-23T06:58:49.952Z,10.63
2019-05-23T07:00:50.261Z,10.79
2019-05-23T07:02:50.288Z,11.00
2019-05-23T07:04:50.598Z,11.00
2019-05-23T07:06:49.765Z,11.40
2019-05-23T07:08:49.778Z,11.56
2019-05-23T07:10:49.801Z,11.66
2019-05-23T07:12:49.930Z,11.72
2019-05-23T07:14:49.867Z,11.84
2019-05-23T07:16:50.799Z,12.01
2019-05-23T07:18:49.901Z,12.02
2019-05-23T07:20:50.028Z,12.08
2019-05-23T07:22:50.146Z,12.22
2019-05-23T07:24:59.383Z,12.41
2019-05-23T07:26:50.655Z,12.47
2019-05-23T07:28:49.718Z,12.61
2019-05-23T07:30:49.700Z,12.72
2019-05-23T07:32:49.894Z,12.81
2019-05-23T07:34:50.489Z,13.02
2019-05-23T07:36:50.743Z,13.20
2019-05-23T07:38:49.884Z,13.36
2019-05-23T07:40:49.893Z,13.43
2019-05-23T07:42:50.031Z,13.55
2019-05-23T07:44:50.067Z,13.50
2019-05-23T07:46:50.377Z,13.45
2019-05-23T07:48:50.430Z,13.46
2019-05-23T07:50:50.555Z,13.54
2019-05-23T07:52:50.674Z,13.70
2019-05-23T07:54:49.747Z,13.83
2019-05-23T07:56:49.872Z,14.08
2019-05-23T07:58:50.016Z,14.19
2019-05-23T08:00:50.016Z,14.38
2019-05-23T08:02:50.120Z,14.59
2019-05-23T08:04:50.576Z,14.66
2019-05-23T08:06:49.764Z,14.71
2019-05-23T08:08:49.801Z,14.52
2019-05-23T08:10:49.958Z,14.49
2019-05-23T08:12:49.997Z,14.61
2019-05-23T08:14:50.066Z,14.65
2019-05-23T08:16:50.296Z,14.87
2019-05-23T08:18:50.449Z,14.87
2019-05-23T08:20:50.466Z,15.13
2019-05-23T08:22:50.560Z,15.24
2019-05-23T08:24:51.973Z,15.25
2019-05-23T08:26:50.236Z,15.20
2019-05-23T08:29:26.281Z,15.14
2019-05-23T08:30:49.785Z,15.13
2019-05-23T08:32:50.091Z,15.13
2019-05-23T08:34:50.563Z,15.31
2019-05-23T08:36:50.103Z,15.43
2019-05-23T08:38:50.232Z,15.58
2019-05-23T08:40:50.579Z,15.96
2019-05-23T08:42:50.600Z,16.06
2019-05-23T08:44:49.838Z,16.22
2019-05-23T08:46:50.251Z,16.22
2019-05-23T08:48:50.267Z,16.15
2019-05-23T08:50:52.243Z,16.22
2019-05-23T08:52:50.390Z,16.27
2019-05-23T08:54:50.479Z,16.45
2019-05-23T08:56:49.728Z,16.60
2019-05-23T08:58:50.031Z,16.63
2019-05-23T09:00:50.344Z,16.68
2019-05-23T09:02:50.424Z,16.66
2019-05-23T09:05:06.999Z,16.68
2019-05-23T09:06:50.171Z,16.61
2019-05-23T09:08:50.274Z,16.57
2019-05-23T09:10:50.387Z,16.61
2019-05-23T09:12:50.364Z,16.61
2019-05-23T09:14:50.402Z,16.78
2019-05-23T09:16:50.614Z,17.01
2019-05-23T09:18:49.825Z,17.22
2019-05-23T09:20:49.877Z,17.30
2019-05-23T09:22:50.006Z,17.08
2019-05-23T09:24:50.121Z,16.89
2019-05-23T09:26:50.258Z,17.02
2019-05-23T09:28:50.369Z,17.61
2019-05-23T09:30:50.544Z,17.8
2019-05-23T09:32:50.672Z,17.9
2019-05-23T09:34:50.235Z,18.0
2019-05-23T09:36:50.400Z,18.0
2019-05-23T09:38:50.940Z,18.0
2019-05-23T09:40:50.016Z,18.2
2019-05-23T09:42:50.183Z,18.2
2019-05-23T09:44:50.343Z,18.3
2019-05-23T09:46:50.599Z,17.96
2019-05-23T09:48:49.709Z,17.57
2019-05-23T09:50:49.869Z,17.10
2019-05-23T09:52:49.885Z,16.96
2019-05-23T09:54:49.984Z,16.80
2019-05-23T09:56:50.162Z,17.22
2019-05-23T09:58:50.266Z,17.60
2019-05-23T10:00:50.546Z,18.20
2019-05-23T10:02:50.599Z,18.4
2019-05-23T10:04:50.130Z,18.36
2019-05-23T10:06:50.427Z,18.28
2019-05-23T10:08:50.573Z,18.08
2019-05-23T10:10:49.834Z,18.48
2019-05-23T10:12:49.858Z,18.63
2019-05-23T10:14:50.027Z,18.7
2019-05-23T10:16:50.327Z,18.7
2019-05-23T10:18:50.417Z,18.7
2019-05-23T10:20:49.737Z,18.7
2019-05-23T10:22:50.316Z,18.7
2019-05-23T10:24:50.467Z,18.8
2019-05-23T10:26:49.768Z,18.9
2019-05-23T10:28:49.818Z,19.0
2019-05-23T10:30:50.227Z,19.0
2019-05-23T10:32:50.313Z,18.95
2019-05-23T10:34:50.025Z,18.95
2019-05-23T10:36:50.358Z,19.0
2019-05-23T10:38:50.550Z,19.0
2019-05-23T10:40:50.241Z,19.1
2019-05-23T10:42:50.287Z,19.2
2019-05-23T10:44:50.456Z,19.2
2019-05-23T10:46:50.685Z,19.4
2019-05-23T10:48:49.744Z,19.6
2019-05-23T10:50:49.873Z,19.6
2019-05-23T10:52:49.904Z,19.6
2019-05-23T10:54:50.007Z,19.6
2019-05-23T10:56:50.344Z,19.7
2019-05-23T10:58:50.409Z,19.7
2019-05-23T11:00:50.486Z,19.7
2019-05-23T11:02:50.594Z,19.7
2019-05-23T11:04:50.165Z,19.6
2019-05-23T11:06:50.435Z,19.6
2019-05-23T11:08:50.549Z,19.7
2019-05-23T11:10:50.767Z,19.7
2019-05-23T11:12:49.752Z,19.7
2019-05-23T11:14:49.826Z,19.6
2019-05-23T11:16:49.951Z,19.7
2019-05-23T11:18:49.989Z,19.8
2019-05-23T11:20:50.024Z,19.8
2019-05-23T11:22:50.165Z,19.9
2019-05-23T11:24:50.241Z,20.0
2019-05-23T11:26:50.419Z,20.1
2019-05-23T11:28:50.568Z,20.2
2019-05-23T11:30:50.604Z,20.2
2019-05-23T11:32:50.679Z,20.3
2019-05-23T11:34:50.118Z,20.4
2019-05-23T11:36:50.461Z,20.5
2019-05-23T11:38:50.531Z,20.6
2019-05-23T11:40:50.689Z,20.6
2019-05-23T11:42:53.250Z,20.5
2019-05-23T11:44:50.368Z,20.4
2019-05-23T11:46:49.812Z,20.4
2019-05-23T11:48:49.898Z,20.4
2019-05-23T11:50:49.997Z,20.3
2019-05-23T11:52:50.130Z,20.3
2019-05-23T11:54:50.310Z,20.4
2019-05-23T11:56:50.630Z,20.4
2019-05-23T11:58:50.429Z,20.38
2019-05-23T12:00:50.735Z,20.37
2019-05-23T12:02:50.284Z,20.50
2019-05-23T12:04:49.762Z,20.6
2019-05-23T12:06:57.038Z,20.6
2019-05-23T12:08:50.203Z,20.6
2019-05-23T12:10:50.474Z,20.43
2019-05-23T12:12:50.553Z,20.10
2019-05-23T12:14:50.674Z,20.04
2019-05-23T12:16:50.001Z,19.92
2019-05-23T12:18:50.371Z,19.88
2019-05-23T12:20:50.502Z,19.94
2019-05-23T12:22:50.720Z,19.95
2019-05-23T12:24:49.994Z,20.46
2019-05-23T12:26:50.176Z,20.6
2019-05-23T12:28:50.247Z,20.6
2019-05-23T12:30:50.344Z,20.6
2019-05-23T12:32:50.292Z,20.6
2019-05-23T12:35:12.314Z,20.6
2019-05-23T12:36:50.297Z,20.6
2019-05-23T12:38:50.446Z,20.6
2019-05-23T12:40:50.539Z,20.6
2019-05-23T12:42:50.670Z,20.6
2019-05-23T12:44:50.628Z,20.7
2019-05-23T12:46:49.931Z,20.7
2019-05-23T12:48:50.016Z,20.7
2019-05-23T12:50:54.713Z,20.7
2019-05-23T12:52:49.873Z,20.8
2019-05-23T12:54:49.837Z,20.8
2019-05-23T12:56:50.199Z,20.8
2019-05-23T12:58:50.312Z,20.9
2019-05-23T13:00:50.488Z,21.0
2019-05-23T13:02:49.874Z,21.0
2019-05-23T13:04:50.391Z,20.9
2019-05-23T13:06:50.577Z,20.8
2019-05-23T13:08:50.711Z,20.9
2019-05-23T13:10:49.938Z,20.8
2019-05-23T13:12:50.012Z,20.9
2019-05-23T13:14:59.374Z,20.9
2019-05-23T13:16:50.445Z,20.69
2019-05-23T13:18:50.468Z,20.74
2019-05-23T13:20:50.508Z,21.0
2019-05-23T13:22:50.647Z,21.0
2019-05-23T13:24:53.849Z,21.0
2019-05-23T13:26:50.498Z,21.0
2019-05-23T13:28:50.548Z,21.0
2019-05-23T13:30:49.785Z,21.0
2019-05-23T13:32:50.095Z,21.0
2019-05-23T13:34:50.454Z,21.0
2019-05-23T13:36:50.753Z,21.0
2019-05-23T13:38:50.291Z,21.0
2019-05-23T13:40:50.587Z,20.9
2019-05-23T13:42:50.093Z,20.9
2019-05-23T13:44:50.175Z,20.9
2019-05-23T13:46:50.450Z,20.9
2019-05-23T13:48:50.565Z,20.9
2019-05-23T13:50:49.769Z,20.9
2019-05-23T13:52:50.411Z,21.0
2019-05-23T13:54:50.355Z,21.1
2019-05-23T13:56:50.018Z,21.2
2019-05-23T13:58:50.009Z,21.2
2019-05-23T14:00:50.353Z,21.3
2019-05-23T14:02:50.072Z,21.3
2019-05-23T14:04:50.609Z,21.4
2019-05-23T14:06:49.877Z,21.5
2019-05-23T14:08:49.993Z,21.4
2019-05-23T14:10:50.023Z,21.4
2019-05-23T14:12:50.133Z,21.4
2019-05-23T14:14:50.195Z,21.3
2019-05-23T14:16:50.436Z,21.3
2019-05-23T14:18:50.573Z,21.2
2019-05-23T14:20:50.686Z,21.2
2019-05-23T14:22:50.689Z,21.2
2019-05-23T14:24:49.767Z,21.3
2019-05-23T14:26:49.907Z,21.3
2019-05-23T14:28:49.954Z,21.3
2019-05-23T14:30:50.038Z,21.3
2019-05-23T14:32:50.184Z,21.2
2019-05-23T14:34:50.584Z,21.1
2019-05-23T14:36:49.896Z,21.1
2019-05-23T14:38:50.041Z,21.1
2019-05-23T14:40:50.247Z,21.1
2019-05-23T14:42:53.754Z,21.0
2019-05-23T14:44:49.891Z,21.0
2019-05-23T14:46:50.195Z,20.9
2019-05-23T14:48:50.318Z,20.9
2019-05-23T14:50:50.222Z,20.8
2019-05-23T14:52:50.571Z,20.8
2019-05-23T14:54:50.618Z,20.8
2019-05-23T14:56:49.928Z,20.8
2019-05-23T14:58:49.971Z,20.8
2019-05-23T15:00:50.046Z,20.8
2019-05-23T15:02:50.203Z,20.9
2019-05-23T15:04:49.689Z,20.9
2019-05-23T15:06:49.903Z,20.9
2019-05-23T15:08:52.609Z,20.9
2019-05-23T15:10:50.666Z,20.9
2019-05-23T15:12:49.727Z,21.0
2019-05-23T15:14:49.834Z,21.0
2019-05-23T15:16:50.311Z,21.1
2019-05-23T15:18:50.460Z,21.1
2019-05-23T15:20:50.461Z,21.1
2019-05-23T15:22:50.806Z,21.2
2019-05-23T15:24:49.983Z,21.4
2019-05-23T15:26:50.358Z,21.4
2019-05-23T15:28:50.451Z,21.4
2019-05-23T15:30:50.639Z,21.4
2019-05-23T15:32:49.798Z,21.4
2019-05-23T15:34:50.270Z,21.4
2019-05-23T15:36:50.606Z,21.4
2019-05-23T15:39:11.065Z,21.4
2019-05-23T15:40:49.927Z,21.4
2019-05-23T15:42:49.955Z,21.4
2019-05-23T15:44:50.250Z,21.4
2019-05-23T15:46:50.562Z,21.3
2019-05-23T15:48:50.506Z,21.3
2019-05-23T15:50:50.531Z,21.1
2019-05-23T15:52:50.489Z,21.1
2019-05-23T15:54:50.470Z,21.1
2019-05-23T15:56:50.708Z,21.0
2019-05-23T15:58:50.613Z,20.9
2019-05-23T16:00:50.622Z,20.8
2019-05-23T16:02:49.834Z,20.8
2019-05-23T16:04:50.128Z,20.7
2019-05-23T16:06:50.309Z,20.6
2019-05-23T16:08:50.312Z,20.5
2019-05-23T16:10:50.322Z,20.4
2019-05-23T16:12:50.375Z,20.36
2019-05-23T16:14:50.317Z,20.34
2019-05-23T16:16:50.347Z,20.30
2019-05-23T16:18:50.310Z,20.30
2019-05-23T16:20:50.404Z,20.2
2019-05-23T16:22:50.461Z,20.2
2019-05-23T16:24:50.387Z,20.18
2019-05-23T16:26:50.514Z,20.1
2019-05-23T16:28:50.483Z,20.1
2019-05-23T16:30:50.514Z,20.1
2019-05-23T16:32:50.492Z,20.1
2019-05-23T16:34:49.706Z,20.1
2019-05-23T16:36:49.846Z,20.2
2019-05-23T16:38:49.796Z,20.2
2019-05-23T16:40:49.767Z,20.3
2019-05-23T16:42:49.826Z,20.4
2019-05-23T16:44:49.763Z,20.4
2019-05-23T16:46:49.819Z,20.5
2019-05-23T16:48:49.799Z,20.6
2019-05-23T16:50:49.921Z,20.6
2019-05-23T16:52:49.916Z,20.7
2019-05-23T16:54:49.911Z,20.8
2019-05-23T16:56:50.252Z,20.8
2019-05-23T16:58:50.237Z,20.9
2019-05-23T17:00:50.328Z,21.0
2019-05-23T17:02:50.263Z,21.0
2019-05-23T17:05:11.136Z,21.0
2019-05-23T17:06:50.354Z,21.0
2019-05-23T17:08:50.490Z,21.0
2019-05-23T17:10:50.479Z,20.80
2019-05-23T17:12:50.476Z,20.71
2019-05-23T17:14:52.406Z,20.43
2019-05-23T17:16:50.709Z,20.35
2019-05-23T17:18:50.336Z,20.24
2019-05-23T17:20:50.135Z,20.12
2019-05-23T17:22:50.094Z,20.05
2019-05-23T17:24:50.130Z,19.92
2019-05-23T17:26:50.401Z,19.86
2019-05-23T17:28:50.490Z,19.78
2019-05-23T17:30:50.400Z,19.77
2019-05-23T17:32:50.462Z,19.65
2019-05-23T17:34:49.718Z,19.62
2019-05-23T17:36:49.898Z,19.59
2019-05-23T17:38:49.922Z,19.52
2019-05-23T17:40:49.944Z,19.46
2019-05-23T17:42:50.009Z,19.42
2019-05-23T17:44:49.998Z,19.35
2019-05-23T17:46:50.080Z,19.26
2019-05-23T17:48:50.026Z,19.18
2019-05-23T17:50:50.107Z,19.10
2019-05-23T17:52:50.103Z,19.02
2019-05-23T17:54:50.158Z,18.99
2019-05-23T17:56:50.628Z,18.92
2019-05-23T17:58:50.701Z,18.86
2019-05-23T18:00:49.699Z,18.85
2019-05-23T18:02:49.688Z,18.81
2019-05-23T18:04:50.094Z,18.80
2019-05-23T18:06:50.181Z,18.76
2019-05-23T18:08:50.161Z,18.65
2019-05-23T18:10:50.124Z,18.59
2019-05-23T18:12:50.160Z,18.53
2019-05-23T18:14:50.140Z,18.51
2019-05-23T18:16:50.404Z,18.47
2019-05-23T18:18:50.426Z,18.39
2019-05-23T18:20:50.395Z,18.39
2019-05-23T18:22:50.426Z,18.21
2019-05-23T18:24:50.279Z,18.15
2019-05-23T18:26:50.410Z,17.97
2019-05-23T18:28:50.440Z,17.86
2019-05-23T18:30:50.421Z,17.63
2019-05-23T18:32:50.495Z,17.46
2019-05-23T18:34:49.810Z,17.34
2019-05-23T18:36:49.933Z,17.15
2019-05-23T18:38:49.985Z,17.03
2019-05-23T18:41:09.503Z,16.80
2019-05-23T18:42:50.401Z,16.70
2019-05-23T18:44:50.515Z,16.53
2019-05-23T18:46:49.704Z,16.35
2019-05-23T18:48:49.850Z,16.14
2019-05-23T18:50:49.957Z,15.96
2019-05-23T18:52:52.364Z,15.83
2019-05-23T18:54:50.413Z,15.67
2019-05-23T18:56:50.619Z,15.49
2019-05-23T18:58:49.730Z,15.35
2019-05-23T19:00:49.880Z,15.17
2019-05-23T19:02:49.757Z,15.06
2019-05-23T19:04:50.144Z,14.93
2019-05-23T19:06:50.312Z,14.81
2019-05-23T19:08:50.421Z,14.79
2019-05-23T19:10:50.562Z,14.65
2019-05-23T19:12:50.569Z,14.60
2019-05-23T19:14:50.610Z,14.43
2019-05-23T19:16:49.855Z,14.33
2019-05-23T19:18:49.895Z,14.24
2019-05-23T19:20:55.494Z,14.16
2019-05-23T19:22:50.603Z,14.11
2019-05-23T19:24:50.645Z,14.01
2019-05-23T19:26:49.818Z,13.91
2019-05-23T19:28:49.842Z,13.83
2019-05-23T19:30:49.953Z,13.73
2019-05-23T19:32:50.097Z,13.68
2019-05-23T19:34:50.430Z,13.58
2019-05-23T19:36:50.588Z,13.49
2019-05-23T19:38:50.600Z,13.41
2019-05-23T19:40:49.781Z,13.29
2019-05-23T19:42:49.812Z,13.24
2019-05-23T19:44:49.934Z,13.19
2019-05-23T19:46:50.241Z,13.15
2019-05-23T19:48:50.366Z,13.09
2019-05-23T19:50:50.476Z,13.06
2019-05-23T19:52:50.579Z,12.95
2019-05-23T19:54:50.670Z,12.89
2019-05-23T19:56:49.802Z,12.85
2019-05-23T19:58:49.853Z,12.76
2019-05-23T20:00:49.914Z,12.65
2019-05-23T20:02:50.014Z,12.56
2019-05-23T20:04:50.410Z,12.50
2019-05-23T20:06:50.612Z,12.45
2019-05-23T20:08:49.755Z,12.40
2019-05-23T20:10:49.892Z,12.31
2019-05-23T20:12:49.975Z,12.24
2019-05-23T20:14:50.085Z,12.21
2019-05-23T20:16:50.305Z,12.20
2019-05-23T20:18:50.363Z,12.20
2019-05-23T20:20:50.461Z,12.10
2019-05-23T20:22:50.536Z,12.02
2019-05-23T20:24:50.659Z,11.99
2019-05-23T20:26:49.909Z,11.95
2019-05-23T20:28:50.026Z,11.93
2019-05-23T20:30:50.179Z,11.89
2019-05-23T20:32:50.250Z,11.87
2019-05-23T20:34:50.660Z,11.85
2019-05-23T20:36:49.820Z,11.77
2019-05-23T20:38:49.909Z,11.72
2019-05-23T20:40:50.002Z,11.68
2019-05-23T20:42:50.042Z,11.68
2019-05-23T20:44:50.209Z,11.62
2019-05-23T20:46:50.409Z,11.57
2019-05-23T20:48:50.535Z,11.46
2019-05-23T20:50:50.633Z,11.38
2019-05-23T20:52:49.762Z,11.35
2019-05-23T20:54:49.910Z,11.28
2019-05-23T20:56:50.144Z,11.23
2019-05-23T20:58:50.221Z,11.17
2019-05-23T21:00:50.321Z,11.13
2019-05-23T21:02:49.774Z,11.08
2019-05-23T21:04:50.309Z,11.06
2019-05-23T21:06:50.487Z,11.04
2019-05-23T21:08:50.523Z,11.03
2019-05-23T21:10:50.612Z,10.97
2019-05-23T21:12:49.785Z,10.93
2019-05-23T21:14:49.768Z,10.92
2019-05-23T21:16:50.075Z,10.88
2019-05-23T21:18:50.775Z,10.83
2019-05-23T21:20:49.886Z,10.83
2019-05-23T21:22:49.940Z,10.75
2019-05-23T21:24:50.020Z,10.71
2019-05-23T21:26:50.219Z,10.72
2019-05-23T21:28:50.350Z,10.70
2019-05-23T21:30:50.454Z,10.67
2019-05-23T21:32:50.726Z,10.64
2019-05-23T21:34:50.210Z,10.58
2019-05-23T21:36:50.476Z,10.56
2019-05-23T21:38:50.555Z,10.51
2019-05-23T21:40:49.750Z,10.48
2019-05-23T21:42:49.908Z,10.41
2019-05-23T21:44:49.919Z,10.38
2019-05-23T21:46:50.084Z,10.33
2019-05-23T21:48:50.297Z,10.30
2019-05-23T21:50:50.371Z,10.27
2019-05-23T21:52:50.456Z,10.25
2019-05-23T21:54:50.439Z,10.24
2019-05-23T21:56:50.695Z,10.26
2019-05-23T21:58:49.795Z,10.26
2019-05-23T22:00:49.743Z,10.25
2019-05-23T22:02:49.931Z,10.21
2019-05-23T22:04:50.307Z,10.18
2019-05-23T22:06:50.647Z,10.13
2019-05-23T22:08:50.382Z,10.10
2019-05-23T22:10:50.419Z,10.04
2019-05-23T22:13:05.062Z,10.04
2019-05-23T22:14:49.894Z,9.95
2019-05-23T22:16:50.085Z,9.89
2019-05-23T22:18:50.094Z,9.89
2019-05-23T22:20:50.182Z,9.82
2019-05-23T22:22:50.217Z,9.81
2019-05-23T22:24:50.417Z,9.78
2019-05-23T22:26:50.680Z,9.74
2019-05-23T22:28:50.649Z,9.73
2019-05-23T22:30:50.588Z,9.66
2019-05-23T22:32:50.610Z,9.63
2019-05-23T22:34:49.932Z,9.59
2019-05-23T22:36:50.008Z,9.58
2019-05-23T22:38:49.999Z,9.54
2019-05-23T22:40:49.948Z,9.53
2019-05-23T22:42:49.957Z,9.50
2019-05-23T22:44:49.919Z,9.46
2019-05-23T22:46:50.051Z,9.43
2019-05-23T22:48:50.015Z,9.39
2019-05-23T22:50:49.951Z,9.37
2019-05-23T22:52:49.928Z,9.32
2019-05-23T22:54:49.917Z,9.29
2019-05-23T22:56:50.017Z,9.28
2019-05-23T22:58:50.012Z,9.25
2019-05-23T23:00:49.947Z,9.18
2019-05-23T23:02:50.009Z,9.14
2019-05-23T23:04:50.354Z,9.06
2019-05-23T23:06:50.479Z,9.00
2019-05-23T23:08:50.440Z,8.99
2019-05-23T23:10:50.426Z,8.90
2019-05-23T23:12:50.550Z,8.88
2019-05-23T23:14:50.495Z,8.87
2019-05-23T23:16:50.645Z,8.84
2019-05-23T23:18:50.667Z,8.84
2019-05-23T23:20:50.607Z,8.86
2019-05-23T23:22:50.673Z,8.86
2019-05-23T23:24:50.588Z,8.84
2019-05-23T23:26:49.793Z,8.81
2019-05-23T23:28:49.755Z,8.82
2019-05-23T23:30:50.618Z,8.80
2019-05-23T23:32:49.746Z,8.80
2019-05-23T23:34:50.169Z,8.77
2019-05-23T23:36:50.383Z,8.77
2019-05-23T23:38:50.300Z,8.74
2019-05-23T23:40:50.317Z,8.72
2019-05-23T23:42:50.391Z,8.67
2019-05-23T23:44:50.502Z,8.62
2019-05-23T23:46:50.530Z,8.61
2019-05-23T23:48:50.459Z,8.56
2019-05-23T23:50:50.474Z,8.49
2019-05-23T23:52:50.410Z,8.45
2019-05-23T23:54:50.402Z,8.42
2019-05-23T23:56:50.411Z,8.38
2019-05-23T23:58:50.393Z,8.35
